createdAt,value
2018-03-02T00:01:03.106Z,-4.7
2018-03-02T00:02:04.499Z,-4.7
2018-03-02T00:03:26.261Z,-4.7
2018-03-02T00:04:27.656Z,-4.6
2018-03-02T00:05:49.420Z,-4.8
2018-03-02T00:06:50.815Z,-4.7
2018-03-02T00:08:12.574Z,-4.7
2018-03-02T00:09:13.969Z,-4.7
2018-03-02T00:10:35.730Z,-4.7
2018-03-02T00:11:37.122Z,-4.6
2018-03-02T00:12:58.850Z,-4.7
2018-03-02T00:14:00.244Z,-4.7
2018-03-02T00:16:01.569Z,-4.8
2018-03-02T00:17:02.960Z,-4.8
2018-03-02T00:18:24.726Z,-4.8
2018-03-02T00:19:26.120Z,-4.9
2018-03-02T00:20:47.881Z,-4.8
2018-03-02T00:21:49.278Z,-4.9
2018-03-02T00:23:11.045Z,-4.8
2018-03-02T00:24:12.429Z,-4.8
2018-03-02T00:25:34.192Z,-4.9
2018-03-02T00:26:35.587Z,-4.9
2018-03-02T00:27:57.353Z,-4.9
2018-03-02T00:28:58.758Z,-4.9
2018-03-02T00:30:20.507Z,-4.8
2018-03-02T00:31:21.901Z,-4.9
2018-03-02T00:32:43.911Z,-4.9
2018-03-02T00:33:45.302Z,-4.9
2018-03-02T00:35:06.974Z,-4.9
2018-03-02T00:36:08.613Z,-4.9
2018-03-02T00:37:30.346Z,-4.8
2018-03-02T00:38:32.944Z,-4.9
2018-03-02T00:39:54.566Z,-5.0
2018-03-02T00:40:55.958Z,-4.9
2018-03-02T00:42:17.723Z,-4.9
2018-03-02T00:43:19.118Z,-5.0
2018-03-02T00:44:40.879Z,-5.0
2018-03-02T00:45:42.277Z,-5.0
2018-03-02T00:47:03.997Z,-5.0
2018-03-02T00:48:05.463Z,-5.0
2018-03-02T00:49:27.189Z,-4.9
2018-03-02T00:50:28.582Z,-5.0
2018-03-02T00:51:50.306Z,-5.0
2018-03-02T00:52:51.700Z,-5.0
2018-03-02T00:54:53.044Z,-4.9
2018-03-02T00:55:54.437Z,-5.0
2018-03-02T00:57:16.188Z,-5.0
2018-03-02T00:58:17.582Z,-5.1
2018-03-02T00:59:39.346Z,-5.0
2018-03-02T01:00:40.740Z,-5.0
2018-03-02T01:02:02.465Z,-5.2
2018-03-02T01:03:03.858Z,-5.1
2018-03-02T01:05:04.974Z,-5.0
2018-03-02T01:06:06.368Z,-5.0
2018-03-02T01:07:28.547Z,-4.9
2018-03-02T01:08:29.940Z,-5.0
2018-03-02T01:09:51.680Z,-4.9
2018-03-02T01:10:53.073Z,-5.0
2018-03-02T01:12:54.129Z,-5.2
2018-03-02T01:13:55.520Z,-5.1
2018-03-02T01:15:56.650Z,-5.1
2018-03-02T01:16:58.044Z,-5.0
2018-03-02T01:18:19.810Z,-5.1
2018-03-02T01:19:21.203Z,-5.1
2018-03-02T01:20:42.961Z,-5.0
2018-03-02T01:21:44.359Z,-5.1
2018-03-02T01:22:45.753Z,-5.2
2018-03-02T01:23:47.258Z,-5.1
2018-03-02T01:24:48.653Z,-5.1
2018-03-02T01:25:50.052Z,-5.1
2018-03-02T01:26:51.578Z,-5.2
2018-03-02T01:27:52.975Z,-5.2
2018-03-02T01:28:54.460Z,-5.2
2018-03-02T01:29:55.853Z,-5.1
2018-03-02T01:30:57.249Z,-5.2
2018-03-02T01:31:58.796Z,-5.1
2018-03-02T01:33:00.188Z,-5.1
2018-03-02T01:34:01.584Z,-5.1
2018-03-02T01:35:03.115Z,-5.2
2018-03-02T01:36:04.501Z,-5.1
2018-03-02T01:37:05.896Z,-5.2
2018-03-02T01:38:07.289Z,-5.2
2018-03-02T01:39:08.684Z,-5.1
2018-03-02T01:40:10.304Z,-5.4
2018-03-02T01:41:11.699Z,-5.2
2018-03-02T01:42:13.185Z,-5.2
2018-03-02T01:43:14.579Z,-5.2
2018-03-02T01:44:16.067Z,-5.2
2018-03-02T01:45:17.460Z,-5.2
2018-03-02T01:46:18.857Z,-5.3
2018-03-02T01:47:20.388Z,-5.2
2018-03-02T01:48:21.786Z,-5.2
2018-03-02T01:49:23.180Z,-5.2
2018-03-02T01:50:24.711Z,-5.3
2018-03-02T01:51:26.100Z,-5.3
2018-03-02T01:52:27.586Z,-5.3
2018-03-02T01:53:28.984Z,-5.3
2018-03-02T01:54:30.470Z,-5.3
2018-03-02T01:55:31.866Z,-5.3
2018-03-02T01:56:33.351Z,-5.3
2018-03-02T01:57:34.743Z,-5.4
2018-03-02T01:58:36.238Z,-5.4
2018-03-02T01:59:37.627Z,-5.4
2018-03-02T02:00:39.112Z,-5.4
2018-03-02T02:01:40.505Z,-5.4
2018-03-02T02:02:41.998Z,-5.4
2018-03-02T02:03:43.393Z,-5.4
2018-03-02T02:04:44.875Z,-5.4
2018-03-02T02:05:46.267Z,-5.4
2018-03-02T02:06:47.756Z,-5.4
2018-03-02T02:07:49.156Z,-5.5
2018-03-02T02:08:50.635Z,-5.5
2018-03-02T02:09:52.030Z,-5.5
2018-03-02T02:10:53.426Z,-5.4
2018-03-02T02:11:54.957Z,-5.6
2018-03-02T02:12:56.349Z,-5.6
2018-03-02T02:13:57.751Z,-5.5
2018-03-02T02:14:59.280Z,-5.6
2018-03-02T02:16:00.676Z,-5.6
2018-03-02T02:17:02.162Z,-5.6
2018-03-02T02:18:03.558Z,-5.5
2018-03-02T02:19:05.043Z,-5.6
2018-03-02T02:20:06.436Z,-5.7
2018-03-02T02:21:07.922Z,-5.7
2018-03-02T02:22:09.313Z,-5.6
2018-03-02T02:23:10.805Z,-5.6
2018-03-02T02:24:12.202Z,-5.7
2018-03-02T02:25:13.683Z,-5.7
2018-03-02T02:26:15.077Z,-5.6
2018-03-02T02:27:16.564Z,-5.7
2018-03-02T02:28:17.958Z,-5.7
2018-03-02T02:29:19.443Z,-5.7
2018-03-02T02:30:20.857Z,-5.8
2018-03-02T02:31:22.321Z,-5.8
2018-03-02T02:32:23.720Z,-5.8
2018-03-02T02:33:25.207Z,-5.7
2018-03-02T02:34:26.614Z,-5.8
2018-03-02T02:35:28.085Z,-5.8
2018-03-02T02:36:29.554Z,-5.8
2018-03-02T02:37:31.177Z,-5.8
2018-03-02T02:38:32.570Z,-5.8
2018-03-02T02:39:34.045Z,-5.8
2018-03-02T02:40:35.444Z,-5.8
2018-03-02T02:41:36.934Z,-5.7
2018-03-02T02:42:38.326Z,-5.8
2018-03-02T02:43:39.810Z,-5.8
2018-03-02T02:44:41.222Z,-5.8
2018-03-02T02:45:42.699Z,-5.9
2018-03-02T02:46:44.095Z,-5.9
2018-03-02T02:47:45.485Z,-5.9
2018-03-02T02:48:47.019Z,-5.8
2018-03-02T02:49:48.410Z,-5.8
2018-03-02T02:50:49.816Z,-5.8
2018-03-02T02:51:51.339Z,-5.8
2018-03-02T02:52:52.746Z,-5.8
2018-03-02T02:53:54.129Z,-5.8
2018-03-02T02:54:55.657Z,-5.8
2018-03-02T02:55:57.083Z,-5.8
2018-03-02T02:56:58.452Z,-5.9
2018-03-02T02:57:59.992Z,-5.9
2018-03-02T02:59:01.391Z,-5.8
2018-03-02T03:00:02.796Z,-5.9
2018-03-02T03:01:04.301Z,-5.8
2018-03-02T03:02:05.692Z,-5.8
2018-03-02T03:03:07.180Z,-5.8
2018-03-02T03:04:08.574Z,-5.9
2018-03-02T03:05:10.060Z,-5.9
2018-03-02T03:06:11.455Z,-5.9
2018-03-02T03:07:12.850Z,-6.0
2018-03-02T03:08:14.381Z,-5.9
2018-03-02T03:09:15.777Z,-5.9
2018-03-02T03:10:17.169Z,-6.0
2018-03-02T03:11:18.703Z,-6.0
2018-03-02T03:12:20.099Z,-5.9
2018-03-02T03:13:21.585Z,-5.9
2018-03-02T03:14:22.980Z,-5.9
2018-03-02T03:15:24.480Z,-5.9
2018-03-02T03:16:25.873Z,-5.9
2018-03-02T03:17:27.263Z,-6.0
2018-03-02T03:18:28.787Z,-6.0
2018-03-02T03:19:30.183Z,-5.9
2018-03-02T03:20:31.578Z,-5.9
2018-03-02T03:21:33.110Z,-6.0
2018-03-02T03:22:34.504Z,-5.9
2018-03-02T03:23:35.907Z,-5.9
2018-03-02T03:24:37.430Z,-5.9
2018-03-02T03:25:38.826Z,-5.9
2018-03-02T03:26:40.219Z,-5.9
2018-03-02T03:27:41.750Z,-5.8
2018-03-02T03:28:43.146Z,-5.9
2018-03-02T03:29:44.541Z,-5.8
2018-03-02T03:30:46.075Z,-5.8
2018-03-02T03:31:47.474Z,-5.8
2018-03-02T03:32:48.953Z,-5.9
2018-03-02T03:33:50.348Z,-5.9
2018-03-02T03:34:51.833Z,-5.9
2018-03-02T03:35:53.230Z,-5.9
2018-03-02T03:36:54.625Z,-5.9
2018-03-02T03:37:56.153Z,-5.8
2018-03-02T03:38:57.546Z,-5.8
2018-03-02T03:39:58.940Z,-5.9
2018-03-02T03:41:00.476Z,-5.9
2018-03-02T03:42:01.868Z,-5.8
2018-03-02T03:43:03.357Z,-5.9
2018-03-02T03:44:04.756Z,-5.8
2018-03-02T03:45:06.238Z,-5.9
2018-03-02T03:46:07.630Z,-5.8
2018-03-02T03:47:09.117Z,-5.8
2018-03-02T03:48:10.510Z,-5.8
2018-03-02T03:49:12.000Z,-5.8
2018-03-02T03:50:13.393Z,-5.8
2018-03-02T03:51:14.799Z,-5.8
2018-03-02T03:52:16.325Z,-5.9
2018-03-02T03:53:17.711Z,-5.8
2018-03-02T03:54:19.113Z,-5.9
2018-03-02T03:55:20.640Z,-5.9
2018-03-02T03:56:22.063Z,-5.8
2018-03-02T03:57:23.439Z,-5.9
2018-03-02T03:58:24.963Z,-5.8
2018-03-02T03:59:26.356Z,-5.9
2018-03-02T04:00:27.847Z,-5.8
2018-03-02T04:01:29.240Z,-5.8
2018-03-02T04:02:30.744Z,-5.9
2018-03-02T04:03:32.134Z,-5.9
2018-03-02T04:04:33.604Z,-5.9
2018-03-02T04:05:35.001Z,-5.8
2018-03-02T04:06:36.395Z,-5.8
2018-03-02T04:07:37.927Z,-5.8
2018-03-02T04:08:39.322Z,-5.9
2018-03-02T04:09:40.714Z,-5.8
2018-03-02T04:10:42.351Z,-5.8
2018-03-02T04:11:43.747Z,-5.9
2018-03-02T04:12:45.146Z,-5.9
2018-03-02T04:13:46.673Z,-5.8
2018-03-02T04:14:48.068Z,-5.9
2018-03-02T04:15:49.754Z,-5.9
2018-03-02T04:16:51.148Z,-5.8
2018-03-02T04:17:52.545Z,-5.9
2018-03-02T04:18:54.079Z,-5.8
2018-03-02T04:19:55.475Z,-5.9
2018-03-02T04:20:56.874Z,-5.8
2018-03-02T04:21:58.401Z,-5.9
2018-03-02T04:22:59.795Z,-5.8
2018-03-02T04:24:01.485Z,-5.9
2018-03-02T04:25:02.880Z,-6.0
2018-03-02T04:26:04.574Z,-5.9
2018-03-02T04:27:05.966Z,-5.9
2018-03-02T04:28:07.655Z,-5.9
2018-03-02T04:29:09.048Z,-5.9
2018-03-02T04:30:10.741Z,-5.9
2018-03-02T04:31:12.135Z,-5.8
2018-03-02T04:32:13.828Z,-5.9
2018-03-02T04:33:15.223Z,-5.9
2018-03-02T04:34:16.913Z,-5.9
2018-03-02T04:35:18.304Z,-5.8
2018-03-02T04:36:19.998Z,-5.8
2018-03-02T04:37:21.393Z,-5.9
2018-03-02T04:38:23.087Z,-5.8
2018-03-02T04:39:24.479Z,-5.9
2018-03-02T04:40:26.171Z,-5.9
2018-03-02T04:41:27.566Z,-5.9
2018-03-02T04:42:29.258Z,-6.0
2018-03-02T04:43:30.649Z,-5.8
2018-03-02T04:44:32.341Z,-5.8
2018-03-02T04:45:33.784Z,-6.0
2018-03-02T04:46:35.425Z,-6.0
2018-03-02T04:47:36.822Z,-6.0
2018-03-02T04:48:38.512Z,-6.0
2018-03-02T04:49:39.904Z,-5.9
2018-03-02T04:50:41.598Z,-5.9
2018-03-02T04:51:42.991Z,-5.9
2018-03-02T04:52:44.684Z,-5.9
2018-03-02T04:53:46.077Z,-5.9
2018-03-02T04:54:47.769Z,-5.9
2018-03-02T04:55:49.166Z,-6.0
2018-03-02T04:56:50.886Z,-5.9
2018-03-02T04:57:52.278Z,-6.0
2018-03-02T04:58:53.939Z,-6.0
2018-03-02T04:59:55.335Z,-6.1
2018-03-02T05:00:57.026Z,-6.1
2018-03-02T05:01:58.430Z,-6.1
2018-03-02T05:03:00.111Z,-6.1
2018-03-02T05:04:01.505Z,-6.1
2018-03-02T05:05:03.196Z,-6.1
2018-03-02T05:06:04.592Z,-6.1
2018-03-02T05:07:06.178Z,-6.1
2018-03-02T05:08:07.585Z,-6.1
2018-03-02T05:09:09.059Z,-6.1
2018-03-02T05:10:10.453Z,-6.1
2018-03-02T05:11:11.940Z,-6.1
2018-03-02T05:12:13.332Z,-6.1
2018-03-02T05:13:14.724Z,-6.0
2018-03-02T05:14:16.260Z,-6.2
2018-03-02T05:15:17.657Z,-6.1
2018-03-02T05:16:19.050Z,-6.2
2018-03-02T05:17:20.584Z,-6.2
2018-03-02T05:18:21.975Z,-6.2
2018-03-02T05:19:23.465Z,-6.2
2018-03-02T05:20:24.856Z,-6.1
2018-03-02T05:21:26.345Z,-6.1
2018-03-02T05:22:27.740Z,-6.2
2018-03-02T05:23:29.226Z,-6.1
2018-03-02T05:24:30.620Z,-6.1
2018-03-02T05:25:32.107Z,-6.1
2018-03-02T05:26:33.499Z,-6.2
2018-03-02T05:27:34.988Z,-6.1
2018-03-02T05:28:36.386Z,-6.2
2018-03-02T05:29:37.868Z,-6.2
2018-03-02T05:30:39.264Z,-6.1
2018-03-02T05:31:40.751Z,-6.2
2018-03-02T05:32:42.150Z,-6.2
2018-03-02T05:33:43.629Z,-6.2
2018-03-02T05:34:45.026Z,-6.2
2018-03-02T05:35:46.511Z,-6.3
2018-03-02T05:36:47.907Z,-6.2
2018-03-02T05:37:49.301Z,-6.2
2018-03-02T05:38:50.834Z,-6.3
2018-03-02T05:39:52.226Z,-6.2
2018-03-02T05:40:53.621Z,-6.2
2018-03-02T05:41:55.156Z,-6.3
2018-03-02T05:42:56.552Z,-6.2
2018-03-02T05:43:57.959Z,-6.3
2018-03-02T05:44:59.474Z,-6.3
2018-03-02T05:46:00.881Z,-6.3
2018-03-02T05:47:02.267Z,-6.3
2018-03-02T05:48:03.797Z,-6.2
2018-03-02T05:49:05.194Z,-6.2
2018-03-02T05:50:06.593Z,-6.2
2018-03-02T05:51:08.120Z,-6.2
2018-03-02T05:52:09.515Z,-6.2
2018-03-02T05:53:10.909Z,-6.2
2018-03-02T05:54:12.441Z,-6.2
2018-03-02T05:55:13.839Z,-6.2
2018-03-02T05:56:15.232Z,-6.2
2018-03-02T05:57:16.766Z,-6.3
2018-03-02T05:58:18.158Z,-6.2
2018-03-02T05:59:19.558Z,-6.2
2018-03-02T06:00:21.085Z,-6.2
2018-03-02T06:01:22.480Z,-6.2
2018-03-02T06:02:23.873Z,-6.2
2018-03-02T06:03:25.408Z,-6.2
2018-03-02T06:04:26.802Z,-6.3
2018-03-02T06:05:28.199Z,-6.2
2018-03-02T06:06:29.753Z,-6.2
2018-03-02T06:07:31.155Z,-6.2
2018-03-02T06:08:32.556Z,-6.2
2018-03-02T06:09:34.051Z,-6.3
2018-03-02T06:10:35.444Z,-6.2
2018-03-02T06:11:36.841Z,-6.3
2018-03-02T06:12:38.372Z,-6.3
2018-03-02T06:13:39.769Z,-6.2
2018-03-02T06:14:42.278Z,-6.2
2018-03-02T06:15:43.672Z,-6.3
2018-03-02T06:16:45.157Z,-6.3
2018-03-02T06:17:46.555Z,-6.3
2018-03-02T06:18:47.995Z,-6.3
2018-03-02T06:19:49.682Z,-6.3
2018-03-02T06:20:51.077Z,-6.4
2018-03-02T06:21:52.475Z,-6.3
2018-03-02T06:22:54.008Z,-6.3
2018-03-02T06:23:55.403Z,-6.3
2018-03-02T06:24:56.800Z,-6.3
2018-03-02T06:25:58.335Z,-6.3
2018-03-02T06:26:59.728Z,-6.3
2018-03-02T06:28:01.134Z,-6.3
2018-03-02T06:29:02.650Z,-6.4
2018-03-02T06:30:04.044Z,-6.3
2018-03-02T06:31:05.827Z,-6.3
2018-03-02T06:34:05.783Z,-6.3
2018-03-02T06:35:07.303Z,-6.3
2018-03-02T06:37:08.469Z,-6.4
2018-03-02T06:38:09.869Z,-6.4
2018-03-02T06:39:31.624Z,-6.3
2018-03-02T06:40:33.025Z,-6.3
2018-03-02T06:41:54.782Z,-6.3
2018-03-02T06:42:56.184Z,-6.2
2018-03-02T06:44:17.934Z,-6.3
2018-03-02T06:45:19.338Z,-6.3
2018-03-02T06:46:41.094Z,-6.3
2018-03-02T06:47:42.495Z,-6.2
2018-03-02T06:49:04.250Z,-6.3
2018-03-02T06:50:05.651Z,-6.2
2018-03-02T06:51:27.372Z,-6.2
2018-03-02T06:52:28.815Z,-6.2
2018-03-02T06:53:50.525Z,-6.2
2018-03-02T06:54:51.923Z,-6.2
2018-03-02T06:56:53.040Z,-6.1
2018-03-02T06:57:54.445Z,-6.1
2018-03-02T06:59:16.199Z,-6.2
2018-03-02T07:00:17.612Z,-6.2
2018-03-02T07:01:39.352Z,-6.1
2018-03-02T07:02:40.751Z,-6.1
2018-03-02T07:04:02.508Z,-6.1
2018-03-02T07:05:03.910Z,-6.1
2018-03-02T07:06:25.637Z,-6.0
2018-03-02T07:07:27.033Z,-6.0
2018-03-02T07:10:47.204Z,-5.9
2018-03-02T07:11:48.592Z,-5.9
2018-03-02T07:13:10.352Z,-5.9
2018-03-02T07:14:11.756Z,-5.8
2018-03-02T07:15:33.510Z,-5.8
2018-03-02T07:16:34.915Z,-5.8
2018-03-02T07:17:56.626Z,-5.8
2018-03-02T07:18:58.024Z,-5.7
2018-03-02T07:20:59.143Z,-5.6
2018-03-02T07:22:00.544Z,-5.5
2018-03-02T07:23:22.301Z,-5.2
2018-03-02T07:24:23.702Z,-4.8
2018-03-02T07:25:45.457Z,-4.7
2018-03-02T07:26:46.858Z,-4.7
2018-03-02T07:28:08.613Z,-4.7
2018-03-02T07:29:10.022Z,-4.7
2018-03-02T07:30:31.769Z,-4.7
2018-03-02T07:31:33.171Z,-4.7
2018-03-02T07:32:54.927Z,-4.8
2018-03-02T07:33:56.327Z,-4.9
2018-03-02T07:35:18.093Z,-4.8
2018-03-02T07:36:19.492Z,-4.7
2018-03-02T07:37:41.239Z,-4.8
2018-03-02T07:38:42.640Z,-4.8
2018-03-02T07:40:04.395Z,-4.7
2018-03-02T07:41:05.798Z,-4.6
2018-03-02T07:42:27.552Z,-4.6
2018-03-02T07:43:28.972Z,-4.5
2018-03-02T07:44:50.710Z,-4.5
2018-03-02T07:45:52.107Z,-4.4
2018-03-02T07:47:13.882Z,-4.6
2018-03-02T07:48:15.276Z,-4.3
2018-03-02T07:49:37.021Z,-4.0
2018-03-02T07:50:38.419Z,-3.6
2018-03-02T07:52:00.176Z,-3.3
2018-03-02T07:53:01.580Z,-2.9
2018-03-02T07:54:23.331Z,-2.8
2018-03-02T07:55:24.730Z,-2.9
2018-03-02T07:56:46.491Z,-3.1
2018-03-02T07:57:47.889Z,-2.9
2018-03-02T07:59:09.645Z,-2.8
2018-03-02T08:00:11.047Z,-2.6
2018-03-02T08:01:32.804Z,-2.3
2018-03-02T08:02:34.206Z,-2.0
2018-03-02T08:03:55.960Z,-1.8
2018-03-02T08:04:57.362Z,-1.9
2018-03-02T08:06:19.120Z,-2.2
2018-03-02T08:07:20.522Z,-2.5
2018-03-02T08:08:42.270Z,-2.7
2018-03-02T08:09:43.673Z,-2.9
2018-03-02T08:11:05.944Z,-3.0
2018-03-02T08:12:07.350Z,-3.1
2018-03-02T08:13:28.999Z,-2.9
2018-03-02T08:14:30.399Z,-2.9
2018-03-02T08:15:52.161Z,-2.9
2018-03-02T08:16:53.550Z,-2.9
2018-03-02T08:18:15.315Z,-3.1
2018-03-02T08:19:16.718Z,-2.9
2018-03-02T08:20:38.464Z,-3.1
2018-03-02T08:21:39.863Z,-2.6
2018-03-02T08:23:01.647Z,-2.1
2018-03-02T08:24:03.048Z,-1.7
2018-03-02T08:25:24.981Z,-1.5
2018-03-02T08:26:26.383Z,-1.4
2018-03-02T08:27:48.136Z,-1.6
2018-03-02T08:28:49.536Z,-1.6
2018-03-02T08:30:11.292Z,-2.0
2018-03-02T08:31:12.696Z,-2.2
2018-03-02T08:32:34.449Z,-2.1
2018-03-02T08:33:35.848Z,-1.8
2018-03-02T08:34:57.606Z,-1.5
2018-03-02T08:35:59.005Z,-1.4
2018-03-02T08:37:20.760Z,-1.4
2018-03-02T08:38:22.168Z,-1.6
2018-03-02T08:39:43.955Z,-1.8
2018-03-02T08:40:45.347Z,-1.7
2018-03-02T08:42:07.073Z,-1.6
2018-03-02T08:43:08.486Z,-1.6
2018-03-02T08:44:30.258Z,-0.9
2018-03-02T08:45:31.630Z,-0.4
2018-03-02T08:46:53.392Z,-0.0
2018-03-02T08:47:54.804Z,-0.1
2018-03-02T08:49:16.546Z,-0.1
2018-03-02T08:50:17.942Z,0.1
2018-03-02T08:51:39.703Z,-0.0
2018-03-02T08:52:41.102Z,-0.1
2018-03-02T08:54:02.857Z,0.1
2018-03-02T08:55:04.249Z,0.4
2018-03-02T08:56:26.011Z,0.6
2018-03-02T08:57:27.442Z,1.4
2018-03-02T08:58:49.169Z,2.1
2018-03-02T08:59:50.558Z,2.4
2018-03-02T09:01:12.322Z,3.5
2018-03-02T09:02:13.718Z,4.3
2018-03-02T09:03:35.470Z,4.8
2018-03-02T09:04:36.883Z,5.5
2018-03-02T09:05:58.637Z,5.9
2018-03-02T09:07:00.039Z,6.2
2018-03-02T09:08:21.787Z,6.4
2018-03-02T09:09:23.181Z,7.2
2018-03-02T09:10:44.949Z,8.2
2018-03-02T09:11:46.776Z,8.7
2018-03-02T09:13:08.511Z,8.5
2018-03-02T09:14:09.925Z,8.2
2018-03-02T09:15:31.668Z,8.1
2018-03-02T09:16:33.071Z,7.6
2018-03-02T09:17:54.828Z,8.7
2018-03-02T09:18:56.231Z,9.2
2018-03-02T09:20:17.983Z,10.4
2018-03-02T09:21:19.383Z,11.1
2018-03-02T09:22:41.169Z,11.9
2018-03-02T09:23:42.576Z,12.5
2018-03-02T09:25:04.303Z,13.3
2018-03-02T09:26:05.701Z,13.6
2018-03-02T09:27:27.470Z,14.3
2018-03-02T09:28:28.875Z,14.9
2018-03-02T09:29:50.607Z,15.7
2018-03-02T09:30:52.016Z,15.4
2018-03-02T09:32:13.763Z,15.5
2018-03-02T09:33:15.166Z,13.7
2018-03-02T09:34:36.921Z,12.5
2018-03-02T09:35:38.332Z,11.7
2018-03-02T09:37:00.047Z,11.9
2018-03-02T09:38:01.452Z,10.1
2018-03-02T09:43:59.918Z,8.8
2018-03-02T09:45:01.370Z,7.9
2018-03-02T09:46:23.071Z,9.1
2018-03-02T09:47:24.479Z,9.5
2018-03-02T09:48:46.239Z,9.4
2018-03-02T09:49:47.638Z,9.5
2018-03-02T09:51:09.384Z,8.3
2018-03-02T09:52:10.800Z,8.5
2018-03-02T09:53:32.546Z,9.7
2018-03-02T09:54:33.948Z,9.2
2018-03-02T09:55:55.706Z,8.4
2018-03-02T09:56:57.103Z,7.5
2018-03-02T09:58:18.864Z,8.1
2018-03-02T09:59:20.326Z,8.3
2018-03-02T10:00:42.018Z,7.7
2018-03-02T10:01:43.419Z,7.4
2018-03-02T10:03:05.176Z,9.1
2018-03-02T10:04:06.579Z,9.5
2018-03-02T10:05:28.345Z,8.9
2018-03-02T10:06:29.752Z,8.7
2018-03-02T10:07:51.482Z,7.6
2018-03-02T10:08:52.906Z,7.3
2018-03-02T10:10:14.640Z,7.4
2018-03-02T10:11:16.041Z,7.6
2018-03-02T10:12:37.772Z,8.1
2018-03-02T10:13:39.178Z,9.3
2018-03-02T10:15:40.493Z,10.7
2018-03-02T10:16:41.908Z,10.5
2018-03-02T10:18:03.638Z,9.6
2018-03-02T10:19:05.045Z,9.5
2018-03-02T10:20:26.796Z,11.4
2018-03-02T10:21:28.200Z,12.6
2018-03-02T10:22:49.953Z,13.6
2018-03-02T10:23:51.362Z,13.8
2018-03-02T10:25:13.095Z,14.2
2018-03-02T10:26:14.508Z,13.9
2018-03-02T10:32:52.475Z,13.1
2018-03-02T10:33:53.886Z,13.4
2018-03-02T10:35:15.594Z,13.3
2018-03-02T10:36:17.003Z,13.0
2018-03-02T10:50:49.115Z,10.7
2018-03-02T10:51:50.521Z,9.9
2018-03-02T10:53:12.268Z,9.0
2018-03-02T10:54:13.678Z,8.8
2018-03-02T10:55:35.448Z,8.3
2018-03-02T10:56:36.851Z,8.4
2018-03-02T10:57:58.586Z,8.3
2018-03-02T10:58:59.993Z,8.2
2018-03-02T11:00:21.740Z,7.3
2018-03-02T11:01:23.146Z,6.7
2018-03-02T11:02:44.895Z,6.1
2018-03-02T11:03:46.305Z,5.0
2018-03-02T11:05:08.018Z,4.5
2018-03-02T11:06:09.487Z,4.2
2018-03-02T11:07:31.211Z,3.8
2018-03-02T11:08:32.636Z,3.6
2018-03-02T11:09:54.367Z,3.7
2018-03-02T11:10:55.772Z,3.7
2018-03-02T11:12:17.632Z,3.8
2018-03-02T11:13:19.039Z,3.6
2018-03-02T11:14:40.678Z,3.5
2018-03-02T11:15:42.084Z,3.4
2018-03-02T11:17:03.835Z,3.4
2018-03-02T11:18:05.240Z,3.5
2018-03-02T11:19:26.993Z,3.3
2018-03-02T11:20:28.393Z,3.2
2018-03-02T11:21:50.147Z,2.9
2018-03-02T11:22:51.551Z,2.9
2018-03-02T11:24:13.332Z,3.0
2018-03-02T11:25:14.734Z,2.9
2018-03-02T11:26:36.463Z,3.0
2018-03-02T11:27:37.868Z,2.9
2018-03-02T11:28:59.629Z,2.9
2018-03-02T11:30:01.016Z,2.9
2018-03-02T11:31:22.738Z,2.6
2018-03-02T11:32:24.129Z,2.6
2018-03-02T11:34:25.282Z,2.6
2018-03-02T11:35:26.888Z,2.5
2018-03-02T11:36:48.610Z,2.2
2018-03-02T11:37:50.078Z,2.1
2018-03-02T11:39:11.764Z,2.0
2018-03-02T11:40:13.176Z,1.9
2018-03-02T11:41:34.926Z,2.1
2018-03-02T11:42:36.325Z,2.0
2018-03-02T11:43:58.058Z,2.0
2018-03-02T11:44:59.447Z,2.2
2018-03-02T11:48:59.143Z,2.0
2018-03-02T11:50:00.548Z,2.0
2018-03-02T11:51:22.261Z,1.7
2018-03-02T11:52:23.661Z,1.6
2018-03-02T11:55:04.503Z,1.8
2018-03-02T11:56:05.909Z,1.6
2018-03-02T11:57:27.662Z,1.6
2018-03-02T11:58:29.062Z,1.6
2018-03-02T11:59:50.820Z,1.6
2018-03-02T12:00:52.219Z,1.8
2018-03-02T12:02:14.051Z,1.7
2018-03-02T12:03:15.453Z,1.6
2018-03-02T12:04:37.618Z,1.8
2018-03-02T12:05:39.020Z,2.1
2018-03-02T12:07:00.977Z,2.1
2018-03-02T12:08:02.414Z,2.3
2018-03-02T12:09:24.095Z,2.5
2018-03-02T12:10:25.494Z,2.4
2018-03-02T12:11:47.495Z,2.4
2018-03-02T12:12:48.896Z,2.4
2018-03-02T12:14:11.251Z,2.4
2018-03-02T12:15:12.647Z,2.4
2018-03-02T12:16:34.378Z,2.3
2018-03-02T12:17:35.782Z,2.4
2018-03-02T12:18:57.783Z,2.4
2018-03-02T12:19:59.182Z,2.4
2018-03-02T12:21:21.143Z,2.3
2018-03-02T12:22:22.540Z,2.3
2018-03-02T12:23:44.507Z,2.1
2018-03-02T12:24:45.919Z,2.0
2018-03-02T12:26:07.864Z,1.9
2018-03-02T12:27:09.264Z,1.9
2018-03-02T12:28:31.293Z,1.9
2018-03-02T12:29:32.647Z,1.9
2018-03-02T12:30:54.613Z,1.9
2018-03-02T12:31:56.015Z,1.9
2018-03-02T12:33:17.880Z,2.0
2018-03-02T12:34:19.278Z,2.0
2018-03-02T12:35:41.060Z,2.2
2018-03-02T12:36:42.513Z,2.2
2018-03-02T12:38:04.458Z,2.0
2018-03-02T12:39:05.856Z,2.0
2018-03-02T12:40:27.836Z,2.1
2018-03-02T12:41:29.239Z,2.1
2018-03-02T12:42:51.197Z,2.1
2018-03-02T12:43:52.594Z,2.2
2018-03-02T12:45:14.548Z,2.1
2018-03-02T12:46:15.942Z,2.1
2018-03-02T12:47:37.661Z,2.0
2018-03-02T12:48:39.060Z,2.0
2018-03-02T12:50:01.449Z,2.0
2018-03-02T12:51:02.847Z,2.0
2018-03-02T12:52:24.625Z,1.9
2018-03-02T12:53:26.023Z,1.9
2018-03-02T12:54:47.996Z,2.0
2018-03-02T12:55:49.395Z,1.9
2018-03-02T12:57:11.354Z,1.9
2018-03-02T12:58:12.750Z,1.9
2018-03-02T12:59:34.718Z,1.9
2018-03-02T13:00:36.126Z,1.9
2018-03-02T13:01:57.834Z,1.9
2018-03-02T13:02:59.240Z,1.8
2018-03-02T13:04:20.986Z,1.7
2018-03-02T13:05:22.387Z,1.6
2018-03-02T13:06:44.389Z,1.6
2018-03-02T13:07:45.831Z,1.6
2018-03-02T13:09:07.745Z,1.7
2018-03-02T13:10:09.145Z,1.6
2018-03-02T13:11:31.110Z,1.6
2018-03-02T13:12:32.511Z,1.7
2018-03-02T13:13:54.478Z,1.8
2018-03-02T13:14:55.889Z,1.7
2018-03-02T13:16:17.867Z,1.8
2018-03-02T13:17:19.268Z,1.8
2018-03-02T13:18:41.198Z,1.9
2018-03-02T13:19:42.602Z,1.9
2018-03-02T13:21:04.557Z,2.0
2018-03-02T13:22:05.960Z,2.1
2018-03-02T13:23:28.129Z,2.0
2018-03-02T13:24:29.532Z,2.0
2018-03-02T13:25:51.506Z,2.0
2018-03-02T13:26:52.892Z,2.1
2018-03-02T13:28:14.594Z,2.0
2018-03-02T13:29:15.987Z,2.0
2018-03-02T13:30:37.995Z,2.1
2018-03-02T13:31:39.392Z,2.0
2018-03-02T13:33:01.358Z,2.0
2018-03-02T13:34:02.753Z,2.0
2018-03-02T13:35:24.515Z,2.0
2018-03-02T13:36:25.914Z,1.9
2018-03-02T13:37:47.622Z,1.8
2018-03-02T13:38:49.042Z,1.9
2018-03-02T13:40:11.034Z,1.8
2018-03-02T13:41:12.428Z,1.9
2018-03-02T13:42:34.390Z,1.8
2018-03-02T13:43:35.795Z,1.7
2018-03-02T13:44:37.452Z,1.9
2018-03-02T13:45:38.850Z,1.7
2018-03-02T13:46:40.530Z,1.6
2018-03-02T13:47:41.937Z,1.6
2018-03-02T13:48:43.620Z,1.6
2018-03-02T13:49:45.024Z,1.5
2018-03-02T13:50:46.420Z,1.5
2018-03-02T13:51:47.942Z,1.5
2018-03-02T13:52:49.342Z,1.5
2018-03-02T13:53:50.741Z,1.4
2018-03-02T13:54:52.284Z,1.4
2018-03-02T13:55:53.688Z,1.5
2018-03-02T13:56:55.349Z,1.5
2018-03-02T13:57:56.752Z,1.6
2018-03-02T13:58:58.433Z,1.5
2018-03-02T13:59:59.862Z,1.6
2018-03-02T14:01:01.572Z,1.6
2018-03-02T14:02:02.974Z,1.5
2018-03-02T14:03:04.613Z,1.5
2018-03-02T14:04:06.014Z,1.6
2018-03-02T14:05:07.691Z,1.6
2018-03-02T14:06:09.088Z,1.6
2018-03-02T14:07:10.576Z,1.7
2018-03-02T14:08:11.974Z,1.8
2018-03-02T14:09:13.376Z,1.9
2018-03-02T14:10:14.893Z,2.0
2018-03-02T14:11:16.296Z,2.0
2018-03-02T14:12:17.696Z,1.9
2018-03-02T14:13:19.216Z,2.0
2018-03-02T14:14:20.615Z,2.0
2018-03-02T14:15:22.017Z,2.0
2018-03-02T14:16:23.536Z,2.0
2018-03-02T14:17:24.940Z,2.1
2018-03-02T14:18:26.337Z,2.1
2018-03-02T14:19:27.736Z,2.0
2018-03-02T14:20:29.162Z,2.1
2018-03-02T14:21:30.738Z,2.2
2018-03-02T14:22:32.140Z,2.2
2018-03-02T14:23:33.539Z,2.1
2018-03-02T14:24:35.059Z,2.0
2018-03-02T14:25:36.480Z,2.0
2018-03-02T14:26:37.890Z,2.0
2018-03-02T14:27:39.387Z,1.9
2018-03-02T14:28:40.788Z,1.9
2018-03-02T14:29:42.189Z,1.8
2018-03-02T14:30:43.701Z,1.9
2018-03-02T14:31:45.102Z,1.8
2018-03-02T14:32:46.508Z,1.8
2018-03-02T14:33:48.031Z,1.8
2018-03-02T14:34:49.425Z,1.6
2018-03-02T14:35:51.209Z,1.8
2018-03-02T14:36:52.751Z,1.9
2018-03-02T14:37:54.152Z,1.8
2018-03-02T14:38:55.558Z,1.8
2018-03-02T14:39:57.070Z,1.7
2018-03-02T14:40:58.476Z,1.8
2018-03-02T14:42:00.160Z,1.8
2018-03-02T14:43:01.560Z,1.8
2018-03-02T14:44:03.247Z,1.8
2018-03-02T14:45:04.648Z,1.8
2018-03-02T14:46:06.051Z,1.7
2018-03-02T14:47:07.566Z,1.7
2018-03-02T14:48:08.967Z,1.7
2018-03-02T14:49:10.366Z,1.6
2018-03-02T14:50:11.889Z,1.6
2018-03-02T14:51:13.294Z,1.6
2018-03-02T14:52:14.978Z,1.6
2018-03-02T14:53:16.379Z,1.6
2018-03-02T14:54:18.086Z,1.6
2018-03-02T14:55:19.482Z,1.7
2018-03-02T14:56:21.147Z,1.7
2018-03-02T14:57:22.585Z,1.6
2018-03-02T14:58:24.242Z,1.6
2018-03-02T14:59:25.679Z,1.6
2018-03-02T15:00:27.334Z,1.7
2018-03-02T15:01:28.737Z,1.6
2018-03-02T15:02:30.403Z,1.7
2018-03-02T15:03:31.801Z,1.6
2018-03-02T15:04:33.286Z,1.6
2018-03-02T15:05:34.686Z,1.6
2018-03-02T15:06:36.087Z,1.6
2018-03-02T15:07:37.608Z,1.6
2018-03-02T15:08:39.009Z,1.6
2018-03-02T15:09:40.412Z,1.7
2018-03-02T15:10:41.938Z,1.6
2018-03-02T15:11:43.328Z,1.7
2018-03-02T15:12:44.809Z,1.5
2018-03-02T15:13:46.208Z,1.5
2018-03-02T15:14:47.892Z,1.5
2018-03-02T15:15:49.297Z,1.6
2018-03-02T15:16:50.977Z,1.6
2018-03-02T15:17:52.396Z,1.5
2018-03-02T15:18:53.866Z,1.5
2018-03-02T15:19:55.265Z,1.5
2018-03-02T15:20:56.670Z,1.5
2018-03-02T15:21:58.182Z,1.5
2018-03-02T15:22:59.588Z,1.6
2018-03-02T15:24:00.982Z,1.6
2018-03-02T15:25:02.503Z,1.6
2018-03-02T15:26:03.904Z,1.6
2018-03-02T15:27:05.406Z,1.6
2018-03-02T15:28:06.809Z,1.6
2018-03-02T15:29:08.465Z,1.5
2018-03-02T15:30:09.868Z,1.5
2018-03-02T15:31:11.265Z,1.5
2018-03-02T15:32:12.790Z,1.5
2018-03-02T15:33:14.186Z,1.5